Time;durP1;ratioP1;P1;durP2;ratioP2;P2;SDS_P1;SDS_P2;PMS_P1;PMS_P2;Temp;Humidity;BMP_temperature;BMP_pressure;BME280_temperature;BME280_humidity;BME280_pressure;Samples;Min_cycle;Max_cycle;Signal;HPM_P1;HPM_P2
2024/03/19 00:01:48;;;;;;;14.23;6.75;;;25.10;99.90;;;;;;5021073;28;20034;-40
2024/03/19 00:04:16;;;;;;;11.75;6.72;;;25.00;99.90;;;;;;5030239;28;20053;-42
2024/03/19 00:06:42;;;;;;;9.38;5.65;;;25.00;99.90;;;;;;5032763;28;20017;-41
2024/03/19 00:09:08;;;;;;;7.93;6.20;;;25.10;99.90;;;;;;5034211;28;20527;-41
2024/03/19 00:11:34;;;;;;;10.38;5.63;;;25.00;99.90;;;;;;5033300;28;20040;-41
2024/03/19 00:14:00;;;;;;;9.23;5.05;;;25.00;99.90;;;;;;5034908;28;20017;-41
2024/03/19 00:16:26;;;;;;;11.40;5.50;;;25.00;99.90;;;;;;5038404;28;20098;-41
2024/03/19 00:18:52;;;;;;;10.43;6.53;;;25.00;99.90;;;;;;5054179;28;20492;-42
2024/03/19 00:21:19;;;;;;;7.78;5.90;;;25.00;99.90;;;;;;5049434;28;20494;-41
2024/03/19 00:23:45;;;;;;;7.82;5.63;;;25.00;99.90;;;;;;5053246;28;20491;-40
2024/03/19 00:26:11;;;;;;;13.23;5.93;;;25.00;99.90;;;;;;5039278;28;20029;-40
2024/03/19 00:28:38;;;;;;;12.48;6.45;;;25.00;99.90;;;;;;5018666;28;20025;-40
2024/03/19 00:31:04;;;;;;;;;;;25.00;99.90;;;;;;5053377;28;20028;-41
2024/03/19 00:33:31;;;;;;;9.60;5.80;;;25.00;99.90;;;;;;5053124;28;19917;-42
2024/03/19 00:35:56;;;;;;;14.27;5.90;;;25.00;99.90;;;;;;5050030;28;20025;-41
2024/03/19 00:38:23;;;;;;;10.57;5.72;;;25.00;99.90;;;;;;5053540;28;20393;-40
2024/03/19 00:40:51;;;;;;;9.88;6.15;;;25.00;99.90;;;;;;5035679;28;20024;-41
2024/03/19 00:43:16;;;;;;;9.95;5.93;;;25.00;99.90;;;;;;5053846;28;20408;-41
2024/03/19 00:45:42;;;;;;;8.55;5.93;;;25.00;99.90;;;;;;5053307;28;20046;-41
2024/03/19 00:48:08;;;;;;;9.18;5.90;;;25.00;99.90;;;;;;5053051;28;20017;-42
2024/03/19 00:50:34;;;;;;;13.75;5.85;;;25.00;99.90;;;;;;5052144;28;20546;-42
2024/03/19 00:53:00;;;;;;;9.30;6.43;;;24.90;99.90;;;;;;5051845;28;20135;-41
2024/03/19 00:55:26;;;;;;;9.63;6.20;;;24.90;99.90;;;;;;5052994;28;20089;-41
2024/03/19 00:57:51;;;;;;;9.10;6.13;;;25.00;99.90;;;;;;5035078;28;20021;-42
2024/03/19 01:00:18;;;;;;;9.50;6.10;;;24.90;99.90;;;;;;5053649;28;20031;-42
2024/03/19 01:02:44;;;;;;;11.85;5.90;;;24.90;99.90;;;;;;5042792;28;20028;-41
2024/03/19 01:05:11;;;;;;;10.65;6.03;;;24.90;99.90;;;;;;5052977;28;20025;-41
2024/03/19 01:07:41;;;;;;;9.60;5.80;;;24.90;99.90;;;;;;5052577;28;20024;-41
2024/03/19 01:10:08;;;;;;;9.20;5.53;;;24.90;99.90;;;;;;5052941;28;20017;-42
2024/03/19 01:12:38;;;;;;;9.20;6.13;;;24.90;99.90;;;;;;5017459;28;20038;-42
2024/03/19 01:15:05;;;;;;;8.60;5.97;;;24.90;99.90;;;;;;5052291;28;20377;-41
2024/03/19 01:17:33;;;;;;;9.82;6.28;;;24.90;99.90;;;;;;5051969;28;20048;-41
2024/03/19 01:20:00;;;;;;;12.10;5.70;;;24.90;99.90;;;;;;5053372;28;20499;-42
2024/03/19 01:22:26;;;;;;;10.13;5.65;;;24.90;99.90;;;;;;5043195;28;20023;-42
2024/03/19 01:24:52;;;;;;;7.15;5.70;;;24.80;99.90;;;;;;5040691;28;20536;-42
2024/03/19 01:27:18;;;;;;;11.85;6.30;;;24.90;99.90;;;;;;5052903;28;20025;-41
2024/03/19 01:29:43;;;;;;;8.57;6.07;;;24.80;99.90;;;;;;5052861;28;20031;-42
2024/03/19 01:32:09;;;;;;;8.40;5.70;;;24.90;99.90;;;;;;5051971;28;20032;-41
2024/03/19 01:34:35;;;;;;;8.65;6.13;;;24.90;99.90;;;;;;5052887;28;20071;-42
2024/03/19 01:37:01;;;;;;;9.00;5.97;;;24.80;99.90;;;;;;5052550;28;20035;-42
2024/03/19 01:39:27;;;;;;;10.15;5.65;;;24.90;99.90;;;;;;5052426;28;20100;-42
2024/03/19 01:41:54;;;;;;;6.68;5.30;;;24.80;99.90;;;;;;5051607;28;20108;-42
2024/03/19 01:44:21;;;;;;;7.03;5.45;;;24.90;99.90;;;;;;5052472;28;20036;-41
2024/03/19 01:46:47;;;;;;;9.43;5.88;;;24.90;99.90;;;;;;5022399;28;20531;-41
2024/03/19 01:49:18;;;;;;;8.77;5.47;;;24.80;99.90;;;;;;5052189;28;20021;-41
2024/03/19 01:51:45;;;;;;;7.13;5.18;;;24.80;99.90;;;;;;5050337;28;20040;-42
2024/03/19 01:54:11;;;;;;;8.00;5.10;;;24.80;99.90;;;;;;5046585;28;20021;-42
2024/03/19 01:56:38;;;;;;;9.13;5.40;;;24.80;99.90;;;;;;5052096;28;20116;-41
2024/03/19 01:59:04;;;;;;;6.30;5.30;;;24.80;99.90;;;;;;5051861;28;20024;-40
2024/03/19 02:01:30;;;;;;;6.32;5.13;;;24.80;99.90;;;;;;5063216;23;20147;-52
2024/03/19 02:03:56;;;;;;;7.72;4.70;;;24.80;99.90;;;;;;5052403;28;20480;-53
2024/03/19 02:06:22;;;;;;;8.38;5.25;;;24.80;99.90;;;;;;5052320;28;20333;-53
2024/03/19 02:09:12;;;;;;;7.25;4.30;;;24.80;99.90;;;;;;5050923;28;20039;-53
2024/03/19 02:11:38;;;;;;;6.25;4.43;;;24.80;99.90;;;;;;5049287;28;20017;-55
2024/03/19 02:14:05;;;;;;;6.38;4.80;;;24.80;99.90;;;;;;5052242;28;20083;-52
2024/03/19 02:16:31;;;;;;;6.07;4.75;;;24.80;99.90;;;;;;5051382;28;20066;-52
2024/03/19 02:19:06;;;;;;;7.80;5.38;;;24.70;99.90;;;;;;5051600;28;20021;-54
2024/03/19 02:21:34;;;;;;;5.60;4.50;;;24.80;99.90;;;;;;5052218;28;20037;-55
2024/03/19 02:24:01;;;;;;;6.43;4.57;;;24.80;99.90;;;;;;5051485;28;20048;-54
2024/03/19 02:26:29;;;;;;;6.85;5.00;;;24.80;99.90;;;;;;5052005;28;20116;-53
2024/03/19 02:28:59;;;;;;;7.10;4.65;;;24.70;99.90;;;;;;5051480;28;20017;-54
2024/03/19 02:31:27;;;;;;;5.65;4.63;;;24.80;99.90;;;;;;5049800;28;20045;-53
2024/03/19 02:33:55;;;;;;;5.72;4.38;;;24.80;99.90;;;;;;5050084;28;20496;-53
2024/03/19 02:36:21;;;;;;;;;;;24.70;99.90;;;;;;5052167;28;20025;-53
2024/03/19 02:38:46;;;;;;;6.38;4.70;;;24.70;99.90;;;;;;5051070;28;20007;-54
2024/03/19 02:41:12;;;;;;;8.07;4.65;;;24.70;99.90;;;;;;5049090;28;20107;-53
2024/03/19 02:43:39;;;;;;;7.38;4.22;;;24.70;99.90;;;;;;5050212;28;20036;-53
2024/03/19 02:46:05;;;;;;;7.28;4.85;;;24.70;99.90;;;;;;5051758;28;20115;-53
2024/03/19 02:48:31;;;;;;;6.22;4.70;;;24.70;99.90;;;;;;5051482;28;20159;-54
2024/03/19 02:50:57;;;;;;;5.78;4.68;;;24.70;99.90;;;;;;5051459;28;20028;-53
2024/03/19 02:53:23;;;;;;;8.80;4.97;;;24.70;99.90;;;;;;5051253;28;20495;-55
2024/03/19 02:55:49;;;;;;;6.82;4.63;;;24.70;99.90;;;;;;5051320;28;20021;-54
2024/03/19 02:58:18;;;;;;;8.30;4.95;;;24.70;99.90;;;;;;5044154;28;20055;-54
2024/03/19 03:00:45;;;;;;;5.40;4.22;;;24.70;99.90;;;;;;5051950;28;20536;-53
2024/03/19 03:03:11;;;;;;;6.10;4.63;;;24.70;99.90;;;;;;5020830;28;20021;-53
2024/03/19 03:05:37;;;;;;;6.53;4.63;;;24.70;99.90;;;;;;5050475;28;20100;-54
2024/03/19 03:08:03;;;;;;;6.80;4.30;;;24.70;99.90;;;;;;5049842;28;20044;-53
2024/03/19 03:10:29;;;;;;;6.68;4.88;;;24.70;99.90;;;;;;5053022;28;20025;-53
2024/03/19 03:12:55;;;;;;;6.50;4.43;;;24.70;99.90;;;;;;5055505;28;20105;-53
2024/03/19 03:15:22;;;;;;;8.98;4.32;;;24.70;99.90;;;;;;5055481;28;20409;-54
2024/03/19 03:17:48;;;;;;;7.05;4.38;;;24.60;99.90;;;;;;5055581;28;20066;-54
2024/03/19 03:20:15;;;;;;;7.75;4.70;;;24.60;99.90;;;;;;5055250;28;20025;-53
2024/03/19 03:22:41;;;;;;;5.87;4.30;;;24.60;99.90;;;;;;5055706;28;20021;-54
2024/03/19 03:25:11;;;;;;;5.43;4.10;;;24.60;99.90;;;;;;5055224;28;20308;-54
2024/03/19 03:27:39;;;;;;;5.25;4.13;;;24.60;99.90;;;;;;5055425;28;20027;-54
2024/03/19 03:30:12;;;;;;;6.38;4.55;;;24.60;99.90;;;;;;5055251;28;20511;-54
2024/03/19 03:32:40;;;;;;;5.38;3.80;;;24.60;99.90;;;;;;5055489;28;20024;-54
2024/03/19 03:35:07;;;;;;;6.38;4.07;;;24.60;99.90;;;;;;5055065;28;20017;-54
2024/03/19 03:37:33;;;;;;;;;;;24.60;99.90;;;;;;5055620;28;20493;-54
2024/03/19 03:39:59;;;;;;;6.25;4.15;;;24.60;99.90;;;;;;5055269;28;19916;-53
2024/03/19 03:42:25;;;;;;;7.15;4.50;;;24.60;99.90;;;;;;5055119;28;20539;-54
2024/03/19 03:44:51;;;;;;;5.90;3.95;;;24.50;99.90;;;;;;5055131;28;20075;-53
2024/03/19 03:47:17;;;;;;;8.07;4.72;;;24.50;99.90;;;;;;5054878;28;20035;-54
2024/03/19 03:49:45;;;;;;;5.25;3.85;;;24.60;99.90;;;;;;5055269;28;20159;-55
2024/03/19 03:52:11;;;;;;;5.22;3.90;;;24.50;99.90;;;;;;5055067;28;20033;-54
2024/03/19 03:54:37;;;;;;;4.97;3.70;;;24.50;99.90;;;;;;5054925;28;20043;-55
2024/03/19 03:57:03;;;;;;;5.78;3.60;;;24.50;99.90;;;;;;5054832;28;20029;-54
2024/03/19 03:59:29;;;;;;;5.40;3.72;;;24.50;99.90;;;;;;5054670;28;20032;-53
2024/03/19 04:01:54;;;;;;;7.47;3.92;;;24.50;99.90;;;;;;5037342;28;20045;-53
2024/03/19 04:04:20;;;;;;;5.28;3.80;;;24.50;99.90;;;;;;5054575;28;20027;-53
2024/03/19 04:06:48;;;;;;;5.95;4.05;;;24.50;99.90;;;;;;5054716;28;20017;-53
2024/03/19 04:09:15;;;;;;;6.20;3.78;;;24.50;99.90;;;;;;5036803;28;20033;-53
2024/03/19 04:11:41;;;;;;;4.15;3.20;;;24.50;99.90;;;;;;5036918;28;20458;-53
2024/03/19 04:14:07;;;;;;;5.10;3.35;;;24.50;99.90;;;;;;5054500;28;20115;-54
2024/03/19 04:16:32;;;;;;;6.95;3.75;;;24.50;99.90;;;;;;5054311;28;20055;-53
2024/03/19 04:18:58;;;;;;;4.70;3.35;;;24.50;99.90;;;;;;5054432;28;20033;-54
2024/03/19 04:21:25;;;;;;;4.40;3.63;;;24.50;99.90;;;;;;5036042;28;20515;-54
2024/03/19 04:23:51;;;;;;;6.13;3.63;;;24.50;99.90;;;;;;5054208;28;20013;-54
2024/03/19 04:26:17;;;;;;;5.00;3.50;;;24.50;99.90;;;;;;5054436;28;20036;-54
2024/03/19 04:28:43;;;;;;;6.53;3.88;;;24.40;99.90;;;;;;5016818;28;20017;-53
2024/03/19 04:31:08;;;;;;;4.93;3.63;;;24.40;99.90;;;;;;5044056;28;20484;-54
2024/03/19 04:33:34;;;;;;;5.00;3.97;;;24.40;99.90;;;;;;5054042;28;20171;-54
2024/03/19 04:36:00;;;;;;;3.47;3.17;;;24.40;99.90;;;;;;5054083;28;20025;-54
2024/03/19 04:38:26;;;;;;;6.10;3.75;;;24.40;99.90;;;;;;5036213;28;20106;-54
2024/03/19 04:40:51;;;;;;;3.63;3.22;;;24.40;99.90;;;;;;5053837;28;20036;-55
2024/03/19 04:43:17;;;;;;;4.72;2.90;;;24.40;99.90;;;;;;5054092;28;20029;-55
2024/03/19 04:45:43;;;;;;;9.00;3.47;;;24.40;99.90;;;;;;5054118;28;20504;-54
2024/03/19 04:48:09;;;;;;;4.30;3.08;;;24.40;99.90;;;;;;5053861;28;20039;-54
2024/03/19 04:50:34;;;;;;;5.53;3.92;;;24.40;99.90;;;;;;5053711;28;20028;-54
2024/03/19 04:53:01;;;;;;;4.82;3.25;;;24.40;99.90;;;;;;5053709;28;20064;-54
2024/03/19 04:55:27;;;;;;;3.53;3.08;;;24.40;99.90;;;;;;5053885;28;20018;-54
2024/03/19 04:57:53;;;;;;;4.03;3.17;;;24.40;99.90;;;;;;5039803;28;20023;-54
2024/03/19 05:00:18;;;;;;;5.10;3.35;;;24.40;99.90;;;;;;5035781;28;20063;-54
2024/03/19 05:02:45;;;;;;;5.03;3.40;;;24.30;99.90;;;;;;5053427;28;20191;-53
2024/03/19 05:05:12;;;;;;;4.20;3.80;;;24.30;99.90;;;;;;5053578;28;20500;-54
2024/03/19 05:07:39;;;;;;;4.40;3.30;;;24.30;99.90;;;;;;5053438;28;20025;-54
2024/03/19 05:10:05;;;;;;;4.43;3.17;;;24.30;99.90;;;;;;5053437;28;20074;-54
2024/03/19 05:12:31;;;;;;;5.18;3.40;;;24.30;99.90;;;;;;5053419;28;20064;-54
2024/03/19 05:14:57;;;;;;;5.90;3.55;;;24.30;99.90;;;;;;5053295;28;20060;-54
2024/03/19 05:17:23;;;;;;;4.30;3.28;;;24.30;99.90;;;;;;5053436;28;20441;-54
2024/03/19 05:19:49;;;;;;;3.85;3.13;;;24.30;99.90;;;;;;5053264;28;20021;-55
2024/03/19 05:22:15;;;;;;;4.22;3.42;;;24.30;99.90;;;;;;5053490;28;20039;-54
2024/03/19 05:24:40;;;;;;;5.97;3.58;;;24.30;99.90;;;;;;5053421;28;20520;-54
2024/03/19 05:27:08;;;;;;;4.93;2.95;;;24.30;99.90;;;;;;5052923;28;20412;-54
2024/03/19 05:29:33;;;;;;;4.18;3.47;;;24.20;99.90;;;;;;5053290;28;20025;-53
2024/03/19 05:32:00;;;;;;;4.63;2.97;;;24.30;99.90;;;;;;5052718;28;20083;-53
2024/03/19 05:34:26;;;;;;;3.53;2.97;;;24.30;99.90;;;;;;5052492;28;20021;-53
2024/03/19 05:36:52;;;;;;;4.30;3.17;;;24.30;99.90;;;;;;5053212;28;20384;-54
2024/03/19 05:39:18;;;;;;;5.07;2.83;;;24.20;99.90;;;;;;5053217;28;20033;-54
2024/03/19 05:41:44;;;;;;;7.53;3.97;;;24.20;99.90;;;;;;5053102;28;20047;-54
2024/03/19 05:44:10;;;;;;;4.55;3.45;;;24.20;99.90;;;;;;5052833;28;20052;-54
2024/03/19 05:46:36;;;;;;;5.45;3.33;;;24.20;99.90;;;;;;5052848;28;20021;-54
2024/03/19 05:49:04;;;;;;;3.80;3.22;;;24.20;99.90;;;;;;5052442;28;20081;-54
2024/03/19 05:51:30;;;;;;;4.85;3.65;;;24.20;99.90;;;;;;5052967;28;20108;-53
2024/03/19 05:53:56;;;;;;;5.22;3.10;;;24.20;99.90;;;;;;5052629;28;20136;-53
2024/03/19 05:56:23;;;;;;;3.25;2.90;;;24.20;99.90;;;;;;5052691;28;20496;-53
2024/03/19 05:58:48;;;;;;;5.78;3.40;;;24.20;99.90;;;;;;5052666;28;20029;-54
2024/03/19 06:01:14;;;;;;;4.13;3.08;;;24.20;99.90;;;;;;5049689;28;20060;-53
2024/03/19 06:03:40;;;;;;;4.40;3.00;;;24.20;99.90;;;;;;5048946;28;20039;-53
2024/03/19 06:06:08;;;;;;;4.85;3.33;;;24.20;99.90;;;;;;5050517;28;20074;-54
2024/03/19 06:08:37;;;;;;;3.38;2.97;;;24.20;99.90;;;;;;5051105;28;20025;-53
2024/03/19 06:11:04;;;;;;;3.47;2.63;;;24.20;99.90;;;;;;5034753;28;20379;-54
2024/03/19 06:13:31;;;;;;;4.13;3.40;;;24.20;99.90;;;;;;5051454;28;20025;-54
2024/03/19 06:15:57;;;;;;;5.15;3.30;;;24.10;99.90;;;;;;5052258;28;20024;-54
2024/03/19 06:18:23;;;;;;;4.65;2.95;;;24.10;99.90;;;;;;5052412;28;20032;-54
2024/03/19 06:20:49;;;;;;;4.28;3.08;;;24.10;99.90;;;;;;5052507;28;20020;-53
2024/03/19 06:23:15;;;;;;;5.40;3.58;;;24.10;99.90;;;;;;5034285;28;20094;-54
2024/03/19 06:25:40;;;;;;;5.20;2.95;;;24.10;99.90;;;;;;5052144;28;20107;-54
2024/03/19 06:28:06;;;;;;;5.10;3.17;;;24.10;99.90;;;;;;5034179;28;20472;-54
2024/03/19 06:30:33;;;;;;;4.22;3.22;;;24.10;99.90;;;;;;5051896;28;20027;-54
2024/03/19 06:32:59;;;;;;;3.70;3.00;;;24.10;99.90;;;;;;5034136;28;20032;-54
2024/03/19 06:35:25;;;;;;;4.03;2.92;;;24.00;99.90;;;;;;5051723;28;20018;-54
2024/03/19 06:37:52;;;;;;;5.35;3.35;;;24.00;99.90;;;;;;5052256;28;20377;-54
2024/03/19 06:40:17;;;;;;;5.43;2.63;;;24.00;99.90;;;;;;5051930;28;20359;-54
2024/03/19 06:42:44;;;;;;;5.10;2.88;;;24.00;99.90;;;;;;5034274;28;20040;-54
2024/03/19 06:45:11;;;;;;;5.10;3.42;;;24.00;99.90;;;;;;5033739;28;20017;-54
2024/03/19 06:47:37;;;;;;;4.10;3.10;;;24.00;99.90;;;;;;5051675;28;20040;-54
2024/03/19 06:50:06;;;;;;;5.63;3.65;;;24.00;99.90;;;;;;5051655;28;20805;-54
2024/03/19 06:52:36;;;;;;;5.80;3.28;;;24.00;99.90;;;;;;5033522;28;20079;-54
2024/03/19 06:55:02;;;;;;;6.75;3.83;;;23.90;99.90;;;;;;5051724;28;20040;-55
2024/03/19 06:57:31;;;;;;;7.90;4.05;;;23.90;99.90;;;;;;5051500;28;20025;-53
2024/03/19 06:59:58;;;;;;;5.70;4.63;;;23.90;99.90;;;;;;5051681;28;20047;-53
2024/03/19 07:02:28;;;;;;;5.35;3.97;;;23.90;99.90;;;;;;5051575;28;20037;-53
2024/03/19 07:04:55;;;;;;;7.07;3.75;;;23.90;99.90;;;;;;5052016;28;20100;-53
2024/03/19 07:07:21;;;;;;;8.13;4.47;;;23.90;99.90;;;;;;5051864;28;20021;-53
2024/03/19 07:09:48;;;;;;;8.27;4.90;;;23.90;99.90;;;;;;5051611;28;20024;-53
2024/03/19 07:12:14;;;;;;;5.88;4.45;;;23.90;99.90;;;;;;5051431;28;20029;-53
2024/03/19 07:14:44;;;;;;;6.33;3.93;;;23.90;99.90;;;;;;5033913;28;20057;-53
2024/03/19 07:17:10;;;;;;;5.80;4.40;;;23.90;99.90;;;;;;5051649;28;20444;-53
2024/03/19 07:19:36;;;;;;;7.88;4.72;;;23.90;99.90;;;;;;5051693;28;20378;-53
2024/03/19 07:22:03;;;;;;;6.60;4.20;;;23.90;99.90;;;;;;5051362;28;20025;-53
2024/03/19 07:24:30;;;;;;;8.25;4.55;;;23.80;99.90;;;;;;5051636;28;20489;-53
2024/03/19 07:26:55;;;;;;;7.15;4.20;;;23.80;99.90;;;;;;5051322;28;20025;-54
2024/03/19 07:29:21;;;;;;;5.85;4.30;;;23.80;99.90;;;;;;5033725;28;20129;-54
2024/03/19 07:31:47;;;;;;;8.75;4.35;;;23.80;99.90;;;;;;5051405;28;20029;-54
2024/03/19 07:34:13;;;;;;;5.50;4.05;;;23.90;99.90;;;;;;5051344;28;20032;-54
2024/03/19 07:36:39;;;;;;;5.85;4.72;;;23.90;99.90;;;;;;5051350;28;20032;-54
2024/03/19 07:39:12;;;;;;;5.80;4.30;;;23.90;99.90;;;;;;5051231;28;20058;-54
2024/03/19 07:41:40;;;;;;;7.20;4.32;;;23.90;99.90;;;;;;5051483;28;20372;-54
2024/03/19 07:44:07;;;;;;;5.93;4.55;;;23.90;99.90;;;;;;5051181;28;20151;-54
2024/03/19 07:46:33;;;;;;;7.45;4.35;;;23.90;99.90;;;;;;5051189;28;20028;-54
2024/03/19 07:49:00;;;;;;;7.43;5.00;;;23.90;99.90;;;;;;5051202;28;20114;-53
2024/03/19 07:51:27;;;;;;;6.25;3.75;;;23.90;99.90;;;;;;5051534;28;20473;-54
2024/03/19 07:53:53;;;;;;;7.82;3.97;;;23.90;99.90;;;;;;5051293;28;20064;-54
2024/03/19 07:56:19;;;;;;;6.95;4.30;;;23.90;99.90;;;;;;5052465;28;20123;-54
2024/03/19 07:58:47;;;;;;;5.82;4.13;;;23.90;99.90;;;;;;5055046;28;20025;-54
2024/03/19 08:01:13;;;;;;;7.85;4.50;;;23.90;99.90;;;;;;5036743;28;20546;-54
2024/03/19 08:03:39;;;;;;;8.15;4.68;;;23.90;99.90;;;;;;5020510;28;20434;-54
2024/03/19 08:06:05;;;;;;;6.85;4.40;;;24.00;99.90;;;;;;5054737;28;20420;-54
2024/03/19 08:08:31;;;;;;;5.35;4.03;;;24.00;99.90;;;;;;5054720;28;20025;-54
2024/03/19 08:10:58;;;;;;;7.18;4.57;;;24.00;99.90;;;;;;5054817;28;20017;-54
2024/03/19 08:13:25;;;;;;;6.07;3.95;;;24.00;99.90;;;;;;5036889;28;20091;-54
2024/03/19 08:15:51;;;;;;;6.28;3.90;;;24.00;99.90;;;;;;5036820;28;20020;-54
2024/03/19 08:18:17;;;;;;;6.40;4.60;;;24.00;99.90;;;;;;5054382;28;20033;-54
2024/03/19 08:20:46;;;;;;;4.85;3.80;;;24.00;99.90;;;;;;5054647;28;20021;-54
2024/03/19 08:23:15;;;;;;;5.65;4.25;;;24.00;99.90;;;;;;5054186;28;20504;-54
2024/03/19 08:25:42;;;;;;;9.25;4.63;;;24.00;99.90;;;;;;5054502;28;20146;-54
2024/03/19 08:28:08;;;;;;;6.82;3.90;;;24.00;99.90;;;;;;5054339;28;20025;-54
2024/03/19 08:30:34;;;;;;;7.28;4.35;;;24.00;99.90;;;;;;5054186;28;20477;-55
2024/03/19 08:33:00;;;;;;;7.13;4.82;;;24.00;99.90;;;;;;5054169;28;20033;-54
2024/03/19 08:35:25;;;;;;;6.18;4.28;;;24.10;99.90;;;;;;5054190;28;20021;-54
2024/03/19 08:37:51;;;;;;;5.47;3.97;;;24.10;99.90;;;;;;5054305;28;20094;-54
2024/03/19 08:40:17;;;;;;;6.40;4.25;;;24.10;99.90;;;;;;5054004;28;20111;-54
2024/03/19 08:42:43;;;;;;;5.82;4.22;;;24.10;99.90;;;;;;5036122;28;20056;-54
2024/03/19 08:45:12;;;;;;;7.78;4.88;;;24.10;99.90;;;;;;5054147;28;20485;-54
2024/03/19 08:47:38;;;;;;;6.68;3.90;;;24.10;99.90;;;;;;5036611;28;20021;-54
2024/03/19 08:50:07;;;;;;;8.52;4.50;;;24.10;99.90;;;;;;5036045;28;20366;-53
2024/03/19 08:52:34;;;;;;;6.30;4.15;;;24.10;99.90;;;;;;5053709;28;20021;-53
2024/03/19 08:55:04;;;;;;;8.40;4.15;;;24.10;99.90;;;;;;5053796;28;20075;-54
2024/03/19 08:57:30;;;;;;;8.60;4.28;;;24.20;99.90;;;;;;5053807;28;20132;-54
2024/03/19 08:59:58;;;;;;;6.72;4.18;;;24.20;99.90;;;;;;5053812;28;20517;-53
2024/03/19 09:02:24;;;;;;;6.05;4.53;;;24.20;99.90;;;;;;5053417;28;20052;-54
2024/03/19 09:04:50;;;;;;;5.65;3.83;;;24.20;99.90;;;;;;5035530;28;20024;-54
2024/03/19 09:07:15;;;;;;;5.38;3.95;;;24.20;99.90;;;;;;5052629;28;20104;-54
2024/03/19 09:09:45;;;;;;;7.45;4.05;;;24.20;99.90;;;;;;5052798;28;20021;-54
2024/03/19 09:12:12;;;;;;;6.55;4.10;;;24.20;99.90;;;;;;5036013;28;20071;-53
2024/03/19 09:14:38;;;;;;;6.05;4.00;;;24.20;99.90;;;;;;5053578;28;20025;-53
2024/03/19 09:17:03;;;;;;;6.55;4.28;;;24.20;99.90;;;;;;5053258;28;20082;-53
2024/03/19 09:19:40;;;;;;;5.88;4.22;;;24.20;99.90;;;;;;5053668;28;20112;-53
2024/03/19 09:22:06;;;;;;;6.63;4.15;;;24.20;99.90;;;;;;5053228;28;20032;-53
2024/03/19 09:24:32;;;;;;;9.88;4.70;;;24.20;99.90;;;;;;5053280;28;20032;-54
2024/03/19 09:26:59;;;;;;;12.60;4.75;;;24.30;99.90;;;;;;5035288;28;20021;-53
2024/03/19 09:29:24;;;;;;;5.85;4.38;;;24.30;99.90;;;;;;5053193;28;20384;-54
2024/03/19 09:31:50;;;;;;;7.68;4.28;;;24.30;99.90;;;;;;5052799;28;20029;-53
2024/03/19 09:34:16;;;;;;;7.05;3.78;;;24.30;99.90;;;;;;5052958;28;20025;-54
2024/03/19 09:36:42;;;;;;;7.32;4.05;;;24.30;99.90;;;;;;5052988;28;20017;-54
2024/03/19 09:39:10;;;;;;;6.35;4.32;;;24.30;99.90;;;;;;5052629;28;20357;-54
2024/03/19 09:41:49;;;;;;;6.72;4.47;;;24.30;99.90;;;;;;5052829;28;20384;-54
2024/03/19 09:44:17;;;;;;;11.85;4.72;;;24.30;99.90;;;;;;5052617;28;20024;-54
2024/03/19 09:46:44;;;;;;;8.00;4.63;;;24.30;99.90;;;;;;5052778;28;20099;-54
2024/03/19 09:49:17;;;;;;;7.20;4.72;;;24.40;99.90;;;;;;5052423;28;20036;-54
2024/03/19 09:51:43;;;;;;;5.00;4.10;;;24.40;99.90;;;;;;5052690;28;20036;-54
2024/03/19 09:54:14;;;;;;;6.38;3.72;;;24.40;99.90;;;;;;5052400;28;20029;-54
2024/03/19 09:56:42;;;;;;;7.00;4.55;;;24.50;99.90;;;;;;5034966;28;20359;-53
2024/03/19 09:59:17;;;;;;;6.90;4.57;;;24.50;99.90;;;;;;5052273;28;20040;-54
2024/03/19 10:01:43;;;;;;;6.85;3.75;;;24.50;99.90;;;;;;5052261;28;20048;-53
2024/03/19 10:04:19;;;;;;;4.75;3.65;;;24.50;99.90;;;;;;5052325;28;20021;-53
2024/03/19 10:06:45;;;;;;;6.32;4.00;;;24.50;99.90;;;;;;5052373;28;20469;-53
2024/03/19 10:09:11;;;;;;;8.50;4.45;;;24.60;99.90;;;;;;5052078;28;20032;-53
2024/03/19 10:11:37;;;;;;;7.75;3.97;;;24.60;99.90;;;;;;5034128;28;20479;-53
2024/03/19 10:14:03;;;;;;;9.70;4.38;;;24.60;99.90;;;;;;5052490;28;20080;-53
2024/03/19 10:16:32;;;;;;;6.75;4.13;;;24.60;99.90;;;;;;5052350;28;20021;-53
2024/03/19 10:18:58;;;;;;;5.47;3.95;;;24.70;99.90;;;;;;5051917;28;20032;-53
2024/03/19 10:21:26;;;;;;;6.75;4.45;;;24.60;99.90;;;;;;5052214;28;20032;-54
2024/03/19 10:23:52;;;;;;;;;;;24.70;99.90;;;;;;5052450;28;20478;-54
2024/03/19 10:26:18;;;;;;;8.52;4.10;;;24.70;99.90;;;;;;5052203;28;19912;-53
2024/03/19 10:28:45;;;;;;;5.27;3.87;;;24.70;99.90;;;;;;5051805;28;20091;-53
2024/03/19 10:31:11;;;;;;;6.85;3.95;;;24.70;99.90;;;;;;5051930;28;20029;-53
2024/03/19 10:33:38;;;;;;;7.45;4.40;;;24.70;99.90;;;;;;5033844;28;20037;-54
2024/03/19 10:36:04;;;;;;;6.90;4.10;;;24.70;99.90;;;;;;5052026;28;20021;-53
2024/03/19 10:38:30;;;;;;;5.60;4.10;;;24.80;99.90;;;;;;5051857;28;20029;-53
2024/03/19 10:40:56;;;;;;;4.95;3.97;;;24.80;99.90;;;;;;5033938;28;20384;-53
2024/03/19 10:43:24;;;;;;;5.90;4.05;;;24.80;99.90;;;;;;5017587;28;20025;-53
2024/03/19 10:45:52;;;;;;;7.00;4.10;;;24.90;99.90;;;;;;5051803;28;20017;-54
2024/03/19 10:48:18;;;;;;;8.38;3.88;;;24.80;99.90;;;;;;5051711;28;20013;-54
2024/03/19 10:50:46;;;;;;;6.28;4.05;;;24.80;99.90;;;;;;5051682;28;20025;-55
2024/03/19 10:53:19;;;;;;;5.97;4.53;;;24.90;99.90;;;;;;5051613;28;20029;-54
2024/03/19 10:55:50;;;;;;;11.75;4.53;;;24.90;99.90;;;;;;5051565;28;20013;-54
2024/03/19 10:58:19;;;;;;;5.15;3.92;;;24.90;99.90;;;;;;5051741;28;20037;-54
2024/03/19 11:00:46;;;;;;;7.72;3.72;;;24.90;99.90;;;;;;5051414;28;20018;-54
2024/03/19 11:03:15;;;;;;;6.47;4.00;;;25.00;99.90;;;;;;5033935;28;20444;-54
2024/03/19 11:05:45;;;;;;;7.10;4.07;;;25.00;99.90;;;;;;5051483;28;20029;-54
2024/03/19 11:08:13;;;;;;;8.35;4.47;;;25.00;99.90;;;;;;5051551;28;20059;-54
2024/03/19 11:10:39;;;;;;;6.18;4.28;;;25.00;99.90;;;;;;5051511;28;20488;-54
2024/03/19 11:13:07;;;;;;;6.32;4.43;;;25.00;99.90;;;;;;5051630;28;20048;-54
2024/03/19 11:15:34;;;;;;;7.90;4.47;;;25.00;99.90;;;;;;5051788;28;20017;-54
2024/03/19 11:18:05;;;;;;;7.55;4.78;;;25.10;99.90;;;;;;5051428;28;20036;-54
2024/03/19 11:20:33;;;;;;;6.25;4.50;;;25.10;99.90;;;;;;5038003;28;20029;-54
2024/03/19 11:23:04;;;;;;;7.70;4.30;;;25.10;99.90;;;;;;5051485;28;20017;-54
2024/03/19 11:25:30;;;;;;;5.65;4.20;;;25.10;99.90;;;;;;5034035;28;20017;-54
2024/03/19 11:27:56;;;;;;;6.75;4.53;;;25.10;99.90;;;;;;5033628;28;20020;-54
2024/03/19 11:30:22;;;;;;;4.78;4.15;;;25.20;99.90;;;;;;5033432;28;20021;-54
2024/03/19 11:32:49;;;;;;;5.22;4.00;;;25.20;99.90;;;;;;5055086;28;20035;-54
2024/03/19 11:35:22;;;;;;;8.48;4.82;;;25.20;99.90;;;;;;5055064;28;20023;-54
2024/03/19 11:37:51;;;;;;;6.28;4.32;;;25.20;99.90;;;;;;5055352;28;20029;-55
2024/03/19 11:40:20;;;;;;;5.75;4.68;;;25.30;99.90;;;;;;5055066;28;20017;-54
2024/03/19 11:42:48;;;;;;;7.63;4.75;;;25.30;99.90;;;;;;5055101;28;20021;-54
2024/03/19 11:45:15;;;;;;;10.85;4.97;;;25.30;99.90;;;;;;5054853;28;20029;-54
2024/03/19 11:47:42;;;;;;;;;;;25.30;99.90;;;;;;5037878;28;20417;-54
2024/03/19 11:50:18;;;;;;;7.63;4.88;;;25.40;99.90;;;;;;5037357;28;19911;-54
2024/03/19 11:52:48;;;;;;;10.18;5.25;;;25.40;99.90;;;;;;5054787;28;20029;-54
2024/03/19 11:55:16;;;;;;;9.27;6.20;;;25.40;99.90;;;;;;5054848;28;20033;-54
2024/03/19 11:57:42;;;;;;;10.05;5.63;;;25.40;99.90;;;;;;5054658;28;20031;-54
2024/03/19 12:00:11;;;;;;;8.32;6.05;;;25.40;99.90;;;;;;5054914;28;20473;-54
2024/03/19 12:02:41;;;;;;;8.32;6.40;;;25.40;99.90;;;;;;5054759;28;20554;-54
2024/03/19 12:05:15;;;;;;;9.70;6.32;;;25.40;99.90;;;;;;5054406;28;20377;-54
2024/03/19 12:07:47;;;;;;;11.45;6.70;;;25.40;99.90;;;;;;5054455;28;20485;-55
2024/03/19 12:10:24;;;;;;;9.27;5.53;;;25.50;99.90;;;;;;5054353;28;20029;-54
2024/03/19 12:12:56;;;;;;;10.18;6.38;;;25.50;99.90;;;;;;5053999;28;20021;-54
2024/03/19 12:15:24;;;;;;;6.88;3.20;;;25.50;99.90;;;;;;5053847;28;20036;-53
2024/03/19 12:17:53;;;;;;;6.43;3.30;;;25.50;99.90;;;;;;5019712;28;20025;-53
2024/03/19 12:20:20;;;;;;;7.35;3.70;;;25.50;99.90;;;;;;5054391;28;20045;-53
2024/03/19 12:22:51;;;;;;;10.98;6.95;;;25.50;99.90;;;;;;5022122;28;20102;-53
2024/03/19 12:25:18;;;;;;;6.38;3.72;;;25.60;99.90;;;;;;5054245;28;20013;-53
2024/03/19 12:27:45;;;;;;;8.20;2.40;;;25.60;99.90;;;;;;5054179;28;20190;-53
2024/03/19 12:30:15;;;;;;;8.30;4.87;;;25.60;99.90;;;;;;5036357;28;20722;-52
2024/03/19 12:33:10;;;;;;;5.32;3.40;;;25.60;99.90;;;;;;5054016;28;20439;-53
2024/03/19 12:35:37;;;;;;;3.63;2.30;;;25.60;99.90;;;;;;5054053;28;20040;-53
2024/03/19 12:38:03;;;;;;;;;;;25.50;99.90;;;;;;5054018;28;20128;-51
2024/03/19 12:40:29;;;;;;;4.25;1.75;;;25.60;99.90;;;;;;5053874;28;20117;-52
2024/03/19 12:42:56;;;;;;;2.88;1.48;;;25.60;99.90;;;;;;5035988;28;20487;-52
2024/03/19 12:45:23;;;;;;;5.05;1.98;;;25.60;99.90;;;;;;5053182;28;20474;-52
2024/03/19 12:47:49;;;;;;;3.13;1.07;;;25.60;99.90;;;;;;5053283;28;20068;-53